Monday, November 20, 2017, 1:59 AM GMT
Back to Local

CXSH, Shawinigan CS , Que.

Location: , , Canada Lat: 46.583
Local Time: 1:59 AM GMT ( 1:59 GMT) Lon: -72.583
Time Zone: GMT Elev: 360 ft

Show me the last for .
Show Coded

Time T Td Feel RH Dir Speed Gust Alt SLP Vis Weather Sky Remarks
2017-11-20 01:00 27 21 21 77 260° 5 - - 29.46 0 None
2017-11-20 00:00 27 22 22 81 270° 5 - - 29.44 0 None
2017-11-19 23:00 29 22 23 73 280° 6 - - 29.40 0 None
2017-11-19 22:00 28 22 21 80 280° 6 - - 29.37 0 None
2017-11-19 21:00 27 22 22 79 280° 5 - - 29.33 0 None
2017-11-19 20:00 27 23 22 84 290° 5 - - 29.29 0 Pressure rising rapidly
2017-11-19 19:00 29 25 23 85 300° 6 - - 29.22 0 None
2017-11-19 18:00 30 27 24 88 310° 6 - - 29.17 0 None
2017-11-19 17:00 30 29 22 94 310° 8 - - 29.13 0 None
2017-11-19 16:00 32 30 25 93 320° 7 - - 29.09 0 None
2017-11-19 15:00 31 31 26 99 330° 6 - - 29.07 0 None
2017-11-19 14:00 33 32 30 94 340° 3 - - 29.06 0 1-hr Precip Total: 0.08"
2017-11-19 13:00 33 32 - 95 30° 2 - - 29.08 0 1-hr Precip Total: 0.08"
2017-11-19 12:00 31 32 - 102 50° 2 - - 29.09 0 None
2017-11-19 11:00 32 31 28 99 50° 3 - - 29.12 0 None
2017-11-19 10:00 32 33 29 104 50° 3 - - 29.14 0 None
2017-11-19 09:00 32 30 27 95 60° 5 - - 29.18 0 None
2017-11-19 08:00 31 29 23 93 70° 8 - - 29.22 0 None
2017-11-19 07:00 30 28 18 92 80° 9 17 - 29.26 0 Pressure falling rapidly
2017-11-19 06:00 30 26 23 84 70° 8 - - 29.31 0 None
2017-11-19 05:00 31 26 25 80 80° 6 - - 29.36 0 None
2017-11-19 04:00 31 24 24 74 90° 8 - - 29.40 0 None
2017-11-19 03:00 31 23 24 72 60° 7 - - 29.45 0 None
2017-11-19 02:00 30 23 23 75 60° 7 - - 29.50 0 None

Support USWX by starting your Amazon purchase here.